Theodore Francis Green State Airport
KPVD : rendu visible

Aérodrome :











RETROUVEZ-NOUS SUR...

 
LOGIN :

S'inscrire | Disclaimer

   EN    FR    IT 

 









Légende :    VFR   VFR Marginal   IFR   IFR Intensif   IFR Très Intensif
Visi : 
Plafond : 
>= 8 km
>= 3000ft
5 à 8 km
1000 à 3000 ft
1500m à 5 km
500 à 1000 ft
800 à 1500m
200 à 500 ft
< 800m
< 200 ft
Symboles :   Orages  Brouillard  Fortes neiges  Fortes précipitations  Vent > 20 kt






- Altitude de l'aérodrome : 55 ft
- Code IATA : PVD


KPVD - Theodore Francis Green State

DERNIER METAR :
  • 031551Z 24007KT 10SM FEW045 FEW300 08/M04 A3016 RMK AO2 SLP213 T00781039

METARs EXPIRÉS :
  • 031451Z 24007KT 10SM FEW045 FEW300 06/M04 A3018 RMK AO2 SLP219 T00611044 50006
  • 031351Z 24006KT 10SM FEW030 FEW300 04/M04 A3018 RMK AO2 SLP220 T00391039

TAF KPVD
Valide du 03 à 15h jusqu'au 04 à 12h UTC


031435Z 0315/0412 23006KT P6SM FEW250
FM031700 23010KT P6SM FEW250
FM032300 23007KT P6SM SCT200
FIR KZBW / Amérique du Nord



MET'MAP, la Météo Aéronautique d'un coup d'oeil ! - Copyright ORBIFLY Décembre 2007 - Disclaimer

ORBIFLY MET'MAP TEAM :

Programmation & Développement : Alexandra Zaïnal
Sur une idée originale de : Baudouin d'Aumeries
Assistance à la programmation : Marc-Olivier Méhu
Soutien technique & logistique : Manuel Goepfert

Contact : metmap@orbifly.com




SOURCES & CREDITS :

   NOAA       Earth
Advisory